Wetterdaten: Woche 10.04.23 - 16.04.23 (KW15)
Datum Zeit Temp. Aussen Temp. o. S. Temp +5cm Feuchte Auss Luftdruck Regen Sonnenschein Regendauer Solar Windben Empfang
10.04.2023 00:00 9,0 C 7,9 C 4,7 C 73 % 1022,9 hPa 0,0 l/m 0,00 h 0,00 h 0 W/m 6,6 km/h (2 Bft) 97,85 %
10.04.2023 01:00 8,4 C 7,4 C 4,3 C 75 % 1022,9 hPa 0,0 l/m 0,00 h 0,00 h 0 W/m 5,9 km/h (2 Bft) 95,28 %
10.04.2023 02:00 8,1 C 7,2 C 3,9 C 76 % 1022,4 hPa 0,0 l/m 0,00 h 0,00 h 0 W/m 7,1 km/h (2 Bft) 97,53 %
10.04.2023 03:00 7,8 C 7,2 C 3,8 C 77 % 1021,7 hPa 0,0 l/m 0,00 h 0,00 h 0 W/m 8,3 km/h (2 Bft) 97,34 %
10.04.2023 04:00 7,5 C 6,6 C 3,3 C 78 % 1021,4 hPa 0,0 l/m 0,00 h 0,00 h 0 W/m 7,7 km/h (2 Bft) 95,40 %
10.04.2023 05:00 6,9 C 5,9 C 2,7 C 80 % 1020,9 hPa 0,0 l/m 0,00 h 0,00 h 0 W/m 9,8 km/h (2 Bft) 95,39 %
10.04.2023 06:00 6,5 C 5,6 C 2,2 C 81 % 1020,6 hPa 0,0 l/m 0,00 h 0,00 h 6 W/m 10,8 km/h (2 Bft) 97,95 %
10.04.2023 07:00 6,6 C 6,0 C 2,7 C 81 % 1020,5 hPa 0,0 l/m 0,00 h 0,00 h 32 W/m 13,9 km/h (3 Bft) 98,11 %
10.04.2023 08:00 7,6 C 7,7 C 3,7 C 79 % 1020,2 hPa 0,0 l/m 0,03 h 0,00 h 96 W/m 18,7 km/h (3 Bft) 96,16 %
10.04.2023 09:00 10,0 C 11,0 C 5,9 C 72 % 1019,7 hPa 0,0 l/m 1,00 h 0,00 h 277 W/m 25,1 km/h (4 Bft) 97,93 %
10.04.2023 10:00 11,7 C 13,2 C 7,9 C 67 % 1018,9 hPa 0,0 l/m 0,67 h 0,00 h 301 W/m 27,5 km/h (4 Bft) 98,29 %
10.04.2023 11:00 13,8 C 16,2 C 10,8 C 62 % 1018,5 hPa 0,0 l/m 1,00 h 0,00 h 502 W/m 27,6 km/h (4 Bft) 97,37 %
10.04.2023 12:00 15,3 C 16,8 C 12,0 C 58 % 1017,5 hPa 0,0 l/m 1,00 h 0,00 h 440 W/m 26,2 km/h (4 Bft) 97,56 %
10.04.2023 13:00 15,8 C 16,3 C 11,7 C 57 % 1016,4 hPa 0,0 l/m 0,53 h 0,00 h 351 W/m 23,1 km/h (4 Bft) 96,11 %
10.04.2023 14:00 16,6 C 17,6 C 12,6 C 56 % 1015,6 hPa 0,0 l/m 0,70 h 0,00 h 398 W/m 23,7 km/h (4 Bft) 98,94 %
10.04.2023 15:00 18,3 C 19,4 C 13,9 C 49 % 1014,6 hPa 0,0 l/m 0,90 h 0,00 h 425 W/m 24,9 km/h (4 Bft) 96,22 %
10.04.2023 16:00 18,5 C 18,7 C 13,8 C 49 % 1013,4 hPa 0,0 l/m 0,57 h 0,00 h 286 W/m 22,6 km/h (4 Bft) 97,40 %
10.04.2023 17:00 17,9 C 17,2 C 13,0 C 51 % 1012,7 hPa 0,0 l/m 0,00 h 0,07 h 116 W/m 30,1 km/h (5 Bft) 98,65 %
10.04.2023 18:00 15,4 C 13,9 C 8,6 C 66 % 1012,0 hPa 0,2 l/m 0,00 h 0,60 h 26 W/m 22,1 km/h (4 Bft) 96,50 %
10.04.2023 19:00 14,1 C 12,9 C 7,9 C 73 % 1011,2 hPa 0,4 l/m 0,00 h 0,83 h 13 W/m 17,6 km/h (3 Bft) 97,22 %
10.04.2023 20:00 13,1 C 11,9 C 6,7 C 80 % 1011,4 hPa 0,4 l/m 0,00 h 0,80 h 0 W/m 15,7 km/h (3 Bft) 99,29 %
10.04.2023 21:00 11,3 C 10,1 C 6,2 C 90 % 1011,8 hPa 1,0 l/m 0,00 h 0,97 h 0 W/m 14,5 km/h (3 Bft) 93,97 %
10.04.2023 22:00 10,6 C 9,6 C 5,6 C 93 % 1011,4 hPa 0,8 l/m 0,00 h 0,87 h 0 W/m 17,5 km/h (3 Bft) 98,64 %
10.04.2023 23:00 9,8 C 8,6 C 5,0 C 92 % 1010,4 hPa 0,2 l/m 0,00 h 0,17 h 0 W/m 15,9 km/h (3 Bft) 95,90 %
11.04.2023 00:00 9,5 C 8,6 C 4,6 C 92 % 1010,3 hPa 0,0 l/m 0,00 h 0,00 h 0 W/m 16,7 km/h (3 Bft) 97,81 %
11.04.2023 01:00 9,3 C 8,5 C 4,4 C 92 % 1010,1 hPa 0,0 l/m 0,00 h 0,00 h 0 W/m 17,3 km/h (3 Bft) 97,04 %
11.04.2023 02:00 9,7 C 8,9 C 4,5 C 91 % 1010,1 hPa 0,0 l/m 0,00 h 0,00 h 0 W/m 17,4 km/h (3 Bft) 97,20 %
11.04.2023 03:00 9,6 C 8,8 C 5,0 C 89 % 1010,1 hPa 0,0 l/m 0,00 h 0,00 h 0 W/m 16,0 km/h (3 Bft) 99,04 %
11.04.2023 04:00 9,1 C 8,3 C 5,0 C 89 % 1010,4 hPa 0,0 l/m 0,00 h 0,00 h 0 W/m 17,6 km/h (3 Bft) 94,81 %
11.04.2023 05:00 8,8 C 7,9 C 4,7 C 88 % 1010,6 hPa 0,0 l/m 0,00 h 0,00 h 0 W/m 15,8 km/h (3 Bft) 98,06 %
11.04.2023 06:00 8,7 C 8,0 C 4,6 C 86 % 1011,2 hPa 0,0 l/m 0,00 h 0,00 h 4 W/m 18,5 km/h (3 Bft) 97,80 %
11.04.2023 07:00 8,7 C 7,9 C 4,4 C 85 % 1011,8 hPa 0,0 l/m 0,00 h 0,00 h 17 W/m 18,2 km/h (3 Bft) 95,60 %
11.04.2023 08:00 8,8 C 8,5 C 5,0 C 84 % 1012,6 hPa 0,0 l/m 0,00 h 0,00 h 85 W/m 19,5 km/h (3 Bft) 96,61 %
11.04.2023 09:00 9,4 C 10,7 C 5,9 C 82 % 1013,1 hPa 0,0 l/m 0,53 h 0,00 h 296 W/m 20,3 km/h (4 Bft) 97,87 %
11.04.2023 10:00 10,8 C 13,5 C 8,4 C 75 % 1013,4 hPa 0,0 l/m 0,53 h 0,00 h 318 W/m 19,3 km/h (3 Bft) 95,02 %
11.04.2023 11:00 12,1 C 14,8 C 10,5 C 67 % 1013,7 hPa 0,0 l/m 0,67 h 0,00 h 595 W/m 24,7 km/h (4 Bft) 98,08 %
11.04.2023 12:00 12,6 C 16,1 C 12,3 C 62 % 1014,1 hPa 0,0 l/m 0,67 h 0,00 h 595 W/m 22,3 km/h (4 Bft) 96,81 %
11.04.2023 13:00 13,5 C 17,1 C 10,6 C 58 % 1014,1 hPa 0,0 l/m 0,77 h 0,00 h 720 W/m 22,8 km/h (4 Bft) 99,43 %
11.04.2023 14:00 14,1 C 16,8 C 10,3 C 55 % 1014,0 hPa 0,0 l/m 0,50 h 0,00 h 510 W/m 21,0 km/h (4 Bft) 98,23 %
11.04.2023 15:00 14,0 C 15,7 C 10,0 C 53 % 1014,0 hPa 0,0 l/m 0,50 h 0,00 h 473 W/m 18,6 km/h (3 Bft) 96,73 %
11.04.2023 16:00 14,7 C 17,0 C 10,8 C 53 % 1013,8 hPa 0,0 l/m 0,83 h 0,00 h 580 W/m 20,7 km/h (4 Bft) 98,22 %
11.04.2023 17:00 14,4 C 17,2 C 10,7 C 57 % 1013,5 hPa 0,0 l/m 1,00 h 0,00 h 440 W/m 18,3 km/h (3 Bft) 96,57 %
11.04.2023 18:00 14,1 C 15,4 C 10,2 C 57 % 1013,0 hPa 0,0 l/m 0,70 h 0,00 h 184 W/m 14,1 km/h (3 Bft) 99,23 %
11.04.2023 19:00 12,7 C 11,9 C 8,4 C 62 % 1012,8 hPa 0,0 l/m 0,00 h 0,00 h 34 W/m 14,5 km/h (3 Bft) 96,58 %
11.04.2023 20:00 11,8 C 10,7 C 7,4 C 66 % 1012,4 hPa 0,0 l/m 0,00 h 0,00 h 8 W/m 8,1 km/h (2 Bft) 97,15 %
11.04.2023 21:00 11,0 C 10,0 C 6,7 C 71 % 1012,0 hPa 0,0 l/m 0,00 h 0,00 h 0 W/m 7,1 km/h (2 Bft) 97,02 %
11.04.2023 22:00 10,7 C 10,0 C 6,7 C 74 % 1011,1 hPa 0,0 l/m 0,00 h 0,00 h 0 W/m 5,8 km/h (2 Bft) 99,01 %
11.04.2023 23:00 10,4 C 9,4 C 6,4 C 73 % 1010,2 hPa 0,0 l/m 0,00 h 0,00 h 0 W/m 6,7 km/h (2 Bft) 96,44 %
12.04.2023 00:00 10,0 C 9,4 C 6,1 C 75 % 1009,3 hPa 0,0 l/m 0,00 h 0,00 h 0 W/m 10,8 km/h (2 Bft) 97,91 %
12.04.2023 01:00 10,0 C 9,2 C 5,3 C 78 % 1008,5 hPa 0,0 l/m 0,00 h 0,37 h 0 W/m 13,3 km/h (3 Bft) 98,47 %
12.04.2023 02:00 9,3 C 8,2 C 4,3 C 84 % 1007,2 hPa 0,2 l/m 0,00 h 0,57 h 0 W/m 12,9 km/h (3 Bft) 94,94 %
12.04.2023 03:00 8,5 C 7,4 C 3,4 C 89 % 1005,8 hPa 0,6 l/m 0,00 h 1,00 h 0 W/m 15,5 km/h (3 Bft) 98,34 %
12.04.2023 04:00 7,9 C 7,2 C 3,1 C 92 % 1004,3 hPa 0,2 l/m 0,00 h 0,73 h 0 W/m 19,5 km/h (3 Bft) 97,07 %
12.04.2023 05:00 7,7 C 7,1 C 2,8 C 93 % 1002,5 hPa 0,2 l/m 0,00 h 0,03 h 0 W/m 21,8 km/h (4 Bft) 97,43 %
12.04.2023 06:00 7,8 C 7,1 C 3,3 C 93 % 1001,3 hPa 0,2 l/m 0,00 h 0,47 h 0 W/m 20,2 km/h (4 Bft) 95,09 %
12.04.2023 07:00 7,7 C 6,7 C 3,3 C 95 % 1000,5 hPa 1,6 l/m 0,00 h 1,00 h 12 W/m 19,8 km/h (4 Bft) 96,64 %
12.04.2023 08:00 7,7 C 6,8 C 3,4 C 96 % 999,7 hPa 1,2 l/m 0,00 h 1,00 h 36 W/m 20,6 km/h (4 Bft) 97,72 %
12.04.2023 09:00 8,1 C 7,3 C 4,1 C 97 % 998,9 hPa 1,2 l/m 0,00 h 1,00 h 68 W/m 18,7 km/h (3 Bft) 95,90 %
12.04.2023 10:00 8,5 C 7,9 C 4,6 C 97 % 998,6 hPa 1,0 l/m 0,00 h 0,63 h 86 W/m 15,4 km/h (3 Bft) 98,76 %
12.04.2023 11:00 9,3 C 9,3 C 5,6 C 98 % 998,4 hPa 0,8 l/m 0,10 h 0,73 h 190 W/m 11,6 km/h (2 Bft) 97,33 %
12.04.2023 12:00 10,1 C 10,7 C 5,9 C 95 % 998,3 hPa 0,0 l/m 0,28 h 0,00 h 228 W/m 13,0 km/h (3 Bft) 96,52 %
12.04.2023 13:00 11,0 C 12,9 C 7,3 C 87 % 998,5 hPa 0,0 l/m 0,63 h 0,07 h 409 W/m 9,7 km/h (2 Bft) 99,09 %
12.04.2023 14:00 12,2 C 13,7 C 8,9 C 78 % 998,4 hPa 0,0 l/m 0,40 h 0,00 h 323 W/m 11,6 km/h (2 Bft) 96,79 %
12.04.2023 15:00 11,3 C 11,1 C 7,3 C 80 % 998,5 hPa 0,2 l/m 0,13 h 0,17 h 182 W/m 16,0 km/h (3 Bft) 95,23 %
12.04.2023 16:00 9,9 C 10,3 C 5,1 C 90 % 999,0 hPa 2,0 l/m 0,37 h 0,30 h 224 W/m 13,2 km/h (3 Bft) 97,77 %
12.04.2023 17:00 8,7 C 10,9 C 4,3 C 91 % 999,4 hPa 0,0 l/m 0,67 h 0,03 h 334 W/m 12,6 km/h (3 Bft) 96,90 %
12.04.2023 18:00 8,9 C 9,2 C 4,3 C 87 % 999,7 hPa 0,0 l/m 0,17 h 0,03 h 92 W/m 10,1 km/h (2 Bft) 96,57 %
12.04.2023 19:00 8,6 C 8,0 C 4,4 C 86 % 999,5 hPa 0,0 l/m 0,00 h 0,00 h 29 W/m 5,2 km/h (1 Bft) 99,62 %
12.04.2023 20:00 8,2 C 7,2 C 4,3 C 89 % 999,5 hPa 0,0 l/m 0,00 h 0,00 h 12 W/m 6,7 km/h (2 Bft) 96,26 %
12.04.2023 21:00 7,7 C 6,9 C 3,9 C 88 % 999,9 hPa 1,0 l/m 0,00 h 0,10 h 0 W/m 12,3 km/h (3 Bft) 97,87 %
12.04.2023 22:00 6,4 C 4,9 C 1,5 C 88 % 1000,0 hPa 0,8 l/m 0,00 h 0,23 h 0 W/m 12,1 km/h (2 Bft) 96,82 %
12.04.2023 23:00 5,7 C 4,9 C 1,4 C 92 % 999,5 hPa 0,0 l/m 0,00 h 0,00 h 0 W/m 12,4 km/h (3 Bft) 98,23 %
13.04.2023 00:00 5,6 C 5,0 C 1,2 C 92 % 998,8 hPa 0,0 l/m 0,00 h 0,00 h 0 W/m 14,5 km/h (3 Bft) 92,94 %
13.04.2023 01:00 6,2 C 5,8 C 1,4 C 89 % 998,1 hPa 0,0 l/m 0,00 h 0,07 h 0 W/m 18,9 km/h (3 Bft) 98,44 %
13.04.2023 02:00 6,9 C 5,8 C 1,7 C 87 % 997,5 hPa 0,4 l/m 0,00 h 0,87 h 0 W/m 30,2 km/h (5 Bft) 97,36 %
13.04.2023 03:00 7,1 C 6,5 C 1,8 C 87 % 997,2 hPa 0,0 l/m 0,00 h 0,03 h 0 W/m 30,6 km/h (5 Bft) 95,75 %
13.04.2023 04:00 7,5 C 6,7 C 2,1 C 85 % 997,3 hPa 0,0 l/m 0,00 h 0,60 h 0 W/m 36,4 km/h (5 Bft) 97,09 %
13.04.2023 05:00 7,4 C 6,5 C 3,0 C 86 % 997,7 hPa 0,0 l/m 0,00 h 0,57 h 0 W/m 38,2 km/h (5 Bft) 97,86 %
13.04.2023 06:00 6,9 C 6,0 C 2,4 C 90 % 998,4 hPa 0,2 l/m 0,00 h 0,83 h 1 W/m 31,4 km/h (5 Bft) 97,16 %
13.04.2023 07:00 6,9 C 6,4 C 3,0 C 91 % 999,4 hPa 0,0 l/m 0,00 h 0,00 h 40 W/m 23,2 km/h (4 Bft) 94,94 %
13.04.2023 08:00 7,3 C 7,2 C 3,6 C 89 % 1000,4 hPa 0,0 l/m 0,07 h 0,00 h 111 W/m 25,1 km/h (4 Bft) 98,38 %
13.04.2023 09:00 8,2 C 8,2 C 4,8 C 87 % 1001,2 hPa 0,0 l/m 0,23 h 0,00 h 167 W/m 24,7 km/h (4 Bft) 97,55 %
13.04.2023 10:00 8,8 C 8,8 C 5,3 C 84 % 1002,0 hPa 0,0 l/m 0,07 h 0,00 h 133 W/m 20,3 km/h (4 Bft) 96,46 %
13.04.2023 11:00 9,9 C 10,8 C 6,9 C 80 % 1002,7 hPa 0,0 l/m 0,47 h 0,00 h 273 W/m 21,8 km/h (4 Bft) 99,01 %
13.04.2023 12:00 10,3 C 10,7 C 6,9 C 77 % 1003,5 hPa 0,0 l/m 0,07 h 0,00 h 223 W/m 18,3 km/h (3 Bft) 97,18 %
13.04.2023 13:00 11,5 C 13,3 C 8,4 C 71 % 1004,0 hPa 0,0 l/m 0,63 h 0,00 h 479 W/m 16,7 km/h (3 Bft) 97,94 %
13.04.2023 14:00 13,3 C 17,3 C 9,5 C 66 % 1004,3 hPa 0,0 l/m 0,77 h 0,00 h 645 W/m 20,0 km/h (4 Bft) 95,92 %
13.04.2023 15:00 14,2 C 17,1 C 10,1 C 61 % 1004,7 hPa 0,0 l/m 0,67 h 0,00 h 551 W/m 19,5 km/h (3 Bft) 97,41 %
13.04.2023 16:00 15,0 C 17,9 C 10,7 C 56 % 1005,0 hPa 0,0 l/m 0,87 h 0,00 h 563 W/m 19,6 km/h (3 Bft) 99,50 %
13.04.2023 17:00 14,9 C 17,7 C 10,6 C 55 % 1005,3 hPa 0,0 l/m 1,00 h 0,00 h 447 W/m 15,9 km/h (3 Bft) 96,65 %
13.04.2023 18:00 14,4 C 15,4 C 10,0 C 53 % 1005,7 hPa 0,0 l/m 0,58 h 0,00 h 179 W/m 10,6 km/h (2 Bft) 97,16 %
13.04.2023 19:00 13,7 C 12,8 C 8,8 C 51 % 1006,3 hPa 0,0 l/m 0,00 h 0,00 h 41 W/m 8,5 km/h (2 Bft) 97,93 %
13.04.2023 20:00 11,8 C 9,9 C 6,0 C 59 % 1007,1 hPa 0,0 l/m 0,00 h 0,00 h 8 W/m 1,7 km/h (1 Bft) 96,54 %
13.04.2023 21:00 10,3 C 8,6 C 4,7 C 63 % 1007,9 hPa 0,0 l/m 0,00 h 0,00 h 0 W/m 1,9 km/h (1 Bft) 98,11 %
13.04.2023 22:00 9,1 C 7,9 C 3,9 C 70 % 1008,5 hPa 0,0 l/m 0,00 h 0,00 h 0 W/m 3,8 km/h (1 Bft) 97,64 %
13.04.2023 23:00 8,3 C 7,2 C 4,0 C 74 % 1009,0 hPa 0,0 l/m 0,00 h 0,00 h 0 W/m 5,7 km/h (1 Bft) 96,23 %
14.04.2023 00:00 7,5 C 6,2 C 3,1 C 77 % 1009,2 hPa 0,0 l/m 0,00 h 0,00 h 0 W/m 4,2 km/h (1 Bft) 95,56 %
14.04.2023 01:00 6,6 C 5,1 C 1,8 C 80 % 1009,3 hPa 0,0 l/m 0,00 h 0,00 h 0 W/m 0,1 km/h (0 Bft) 96,00 %
14.04.2023 02:00 5,5 C 3,7 C 0,6 C 83 % 1009,4 hPa 0,0 l/m 0,00 h 0,00 h 0 W/m 0,0 km/h (0 Bft) 96,79 %
14.04.2023 03:00 4,3 C 2,8 C 0,0 C 87 % 1009,8 hPa 0,0 l/m 0,00 h 0,00 h 0 W/m 0,0 km/h (0 Bft) 94,92 %
14.04.2023 04:00 4,0 C 3,3 C 0,5 C 89 % 1010,0 hPa 0,0 l/m 0,00 h 0,00 h 0 W/m 3,2 km/h (1 Bft) 97,41 %
14.04.2023 05:00 4,1 C 3,3 C 0,6 C 90 % 1010,2 hPa 0,0 l/m 0,00 h 0,00 h 0 W/m 5,0 km/h (1 Bft) 97,94 %
14.04.2023 06:00 3,8 C 2,5 C -0,3 C 90 % 1010,3 hPa 0,0 l/m 0,00 h 0,00 h 6 W/m 1,9 km/h (1 Bft) 98,56 %
14.04.2023 07:00 3,4 C 2,9 C -0,2 C 91 % 1010,5 hPa 0,0 l/m 0,00 h 0,00 h 21 W/m 4,2 km/h (1 Bft) 95,57 %
14.04.2023 08:00 4,4 C 4,7 C 1,2 C 93 % 1010,6 hPa 0,0 l/m 0,10 h 0,00 h 69 W/m 9,3 km/h (2 Bft) 98,25 %
14.04.2023 09:00 7,5 C 13,1 C 3,7 C 87 % 1010,2 hPa 0,0 l/m 1,00 h 0,00 h 408 W/m 9,5 km/h (2 Bft) 97,48 %
14.04.2023 10:00 11,2 C 17,3 C 7,9 C 72 % 1010,0 hPa 0,0 l/m 0,83 h 0,00 h 452 W/m 10,3 km/h (2 Bft) 98,73 %
14.04.2023 11:00 13,0 C 18,4 C 11,4 C 64 % 1009,7 hPa 0,0 l/m 0,97 h 0,00 h 680 W/m 14,3 km/h (3 Bft) 98,36 %
14.04.2023 12:00 14,5 C 21,6 C 15,0 C 60 % 1009,3 hPa 0,0 l/m 0,83 h 0,00 h 687 W/m 15,3 km/h (3 Bft) 97,74 %
14.04.2023 13:00 15,8 C 22,2 C 12,3 C 55 % 1008,7 hPa 0,0 l/m 1,00 h 0,00 h 834 W/m 15,6 km/h (3 Bft) 98,12 %
14.04.2023 14:00 16,6 C 23,4 C 11,8 C 48 % 1008,3 hPa 0,0 l/m 0,90 h 0,00 h 755 W/m 13,5 km/h (3 Bft) 98,50 %
14.04.2023 15:00 17,3 C 22,9 C 12,1 C 42 % 1007,8 hPa 0,0 l/m 1,00 h 0,00 h 738 W/m 13,6 km/h (3 Bft) 94,03 %
14.04.2023 16:00 17,8 C 22,3 C 13,0 C 43 % 1007,2 hPa 0,0 l/m 0,93 h 0,00 h 625 W/m 11,1 km/h (2 Bft) 98,72 %
14.04.2023 17:00 17,0 C 19,0 C 12,5 C 46 % 1006,9 hPa 0,0 l/m 0,53 h 0,00 h 288 W/m 9,3 km/h (2 Bft) 97,16 %
14.04.2023 18:00 16,9 C 19,6 C 12,0 C 45 % 1006,8 hPa 0,0 l/m 0,68 h 0,00 h 212 W/m 7,2 km/h (2 Bft) 96,30 %
14.04.2023 19:00 15,6 C 14,0 C 10,0 C 48 % 1006,7 hPa 0,0 l/m 0,00 h 0,00 h 29 W/m 4,4 km/h (1 Bft) 98,98 %
14.04.2023 20:00 13,6 C 10,6 C 6,7 C 61 % 1007,1 hPa 0,0 l/m 0,00 h 0,00 h 9 W/m 0,9 km/h (0 Bft) 96,14 %
14.04.2023 21:00 11,2 C 9,5 C 6,1 C 68 % 1007,7 hPa 0,0 l/m 0,00 h 0,00 h 0 W/m 3,0 km/h (1 Bft) 96,99 %
14.04.2023 22:00 9,7 C 7,8 C 4,5 C 74 % 1007,9 hPa 0,0 l/m 0,00 h 0,00 h 0 W/m 0,9 km/h (0 Bft) 98,44 %
14.04.2023 23:00 8,5 C 7,2 C 3,9 C 78 % 1007,9 hPa 0,0 l/m 0,00 h 0,00 h 0 W/m 2,3 km/h (1 Bft) 98,27 %
15.04.2023 00:00 7,8 C 6,3 C 3,1 C 79 % 1008,0 hPa 0,0 l/m 0,00 h 0,00 h 0 W/m 1,6 km/h (1 Bft) 95,93 %
15.04.2023 01:00 7,0 C 5,6 C 2,4 C 81 % 1008,1 hPa 0,0 l/m 0,00 h 0,00 h 0 W/m 0,7 km/h (0 Bft) 97,17 %
15.04.2023 02:00 6,3 C 5,3 C 2,0 C 82 % 1008,0 hPa 0,0 l/m 0,00 h 0,00 h 0 W/m 2,8 km/h (1 Bft) 98,24 %
15.04.2023 03:00 6,0 C 4,6 C 1,5 C 83 % 1008,1 hPa 0,0 l/m 0,00 h 0,00 h 0 W/m 0,6 km/h (0 Bft) 95,88 %
15.04.2023 04:00 5,2 C 3,9 C 0,9 C 85 % 1008,2 hPa 0,0 l/m 0,00 h 0,00 h 0 W/m 1,9 km/h (1 Bft) 97,79 %
15.04.2023 05:00 4,8 C 3,9 C 0,6 C 86 % 1008,5 hPa 0,0 l/m 0,00 h 0,00 h 0 W/m 1,7 km/h (1 Bft) 96,09 %
15.04.2023 06:00 4,6 C 3,7 C 0,6 C 88 % 1009,0 hPa 0,0 l/m 0,00 h 0,00 h 10 W/m 2,1 km/h (1 Bft) 97,63 %
15.04.2023 07:00 4,7 C 4,5 C 1,1 C 89 % 1009,5 hPa 0,0 l/m 0,00 h 0,00 h 39 W/m 2,8 km/h (1 Bft) 97,31 %
15.04.2023 08:00 6,6 C 7,3 C 3,1 C 91 % 1010,3 hPa 0,0 l/m 0,07 h 0,00 h 115 W/m 9,8 km/h (2 Bft) 96,37 %
15.04.2023 09:00 8,8 C 10,9 C 5,4 C 88 % 1011,0 hPa 0,0 l/m 0,83 h 0,00 h 274 W/m 11,7 km/h (2 Bft) 97,92 %
15.04.2023 10:00 11,3 C 13,8 C 7,6 C 75 % 1011,7 hPa 0,0 l/m 0,97 h 0,00 h 345 W/m 21,0 km/h (4 Bft) 96,64 %
15.04.2023 11:00 12,5 C 15,3 C 9,6 C 69 % 1012,2 hPa 0,0 l/m 1,00 h 0,00 h 505 W/m 18,9 km/h (3 Bft) 97,52 %
15.04.2023 12:00 13,0 C 17,0 C 11,0 C 69 % 1012,8 hPa 0,0 l/m 1,00 h 0,00 h 622 W/m 25,0 km/h (4 Bft) 99,27 %
15.04.2023 13:00 13,3 C 14,8 C 9,9 C 69 % 1013,2 hPa 0,0 l/m 0,17 h 0,00 h 340 W/m 22,4 km/h (4 Bft) 96,87 %
15.04.2023 14:00 12,7 C 13,4 C 9,1 C 71 % 1013,9 hPa 0,0 l/m 0,20 h 0,00 h 311 W/m 25,2 km/h (4 Bft) 97,29 %
15.04.2023 15:00 12,2 C 12,1 C 8,2 C 73 % 1014,7 hPa 0,0 l/m 0,00 h 0,00 h 149 W/m 20,2 km/h (4 Bft) 97,59 %
15.04.2023 16:00 11,5 C 11,2 C 7,5 C 76 % 1015,4 hPa 0,0 l/m 0,00 h 0,00 h 102 W/m 22,6 km/h (4 Bft) 95,55 %
15.04.2023 17:00 11,4 C 11,3 C 7,4 C 77 % 1015,9 hPa 0,0 l/m 0,00 h 0,00 h 123 W/m 20,9 km/h (4 Bft) 97,09 %
15.04.2023 18:00 11,0 C 10,5 C 6,9 C 78 % 1016,7 hPa 0,0 l/m 0,00 h 0,00 h 64 W/m 23,2 km/h (4 Bft) 96,23 %
15.04.2023 19:00 10,0 C 9,2 C 5,7 C 83 % 1017,4 hPa 0,0 l/m 0,00 h 0,03 h 12 W/m 24,6 km/h (4 Bft) 96,73 %
15.04.2023 20:00 9,1 C 8,3 C 4,7 C 89 % 1018,1 hPa 0,0 l/m 0,00 h 0,00 h 0 W/m 18,2 km/h (3 Bft) 95,28 %
15.04.2023 21:00 8,8 C 8,3 C 4,4 C 90 % 1019,0 hPa 0,0 l/m 0,00 h 0,00 h 0 W/m 20,7 km/h (4 Bft) 98,91 %
15.04.2023 22:00 8,4 C 7,8 C 4,1 C 91 % 1019,5 hPa 0,0 l/m 0,00 h 0,00 h 0 W/m 22,9 km/h (4 Bft) 96,25 %
15.04.2023 23:00 8,1 C 7,6 C 3,9 C 93 % 1019,9 hPa 0,0 l/m 0,00 h 0,00 h 0 W/m 17,2 km/h (3 Bft) 95,95 %
16.04.2023 00:00 8,1 C 7,4 C 3,9 C 93 % 1020,4 hPa 0,0 l/m 0,00 h 0,00 h 0 W/m 17,9 km/h (3 Bft) 97,52 %
16.04.2023 01:00 8,0 C 7,2 C 3,9 C 93 % 1020,7 hPa 0,0 l/m 0,00 h 0,00 h 0 W/m 14,6 km/h (3 Bft) 96,70 %
16.04.2023 02:00 8,0 C 7,2 C 4,1 C 94 % 1020,9 hPa 0,0 l/m 0,00 h 0,00 h 0 W/m 13,6 km/h (3 Bft) 97,16 %
16.04.2023 03:00 8,0 C 7,2 C 4,1 C 94 % 1021,0 hPa 0,0 l/m 0,00 h 0,00 h 0 W/m 14,4 km/h (3 Bft) 99,10 %
16.04.2023 04:00 8,0 C 7,2 C 4,0 C 95 % 1021,1 hPa 0,0 l/m 0,00 h 0,00 h 0 W/m 12,9 km/h (3 Bft) 95,65 %
16.04.2023 05:00 8,1 C 7,2 C 3,9 C 95 % 1021,2 hPa 0,0 l/m 0,00 h 0,00 h 0 W/m 12,4 km/h (3 Bft) 98,05 %
16.04.2023 06:00 8,1 C 7,2 C 4,0 C 96 % 1021,4 hPa 0,0 l/m 0,00 h 0,00 h 0 W/m 13,3 km/h (3 Bft) 97,10 %
16.04.2023 07:00 8,1 C 7,4 C 4,4 C 97 % 1021,8 hPa 0,0 l/m 0,00 h 0,00 h 8 W/m 14,0 km/h (3 Bft) 95,79 %
16.04.2023 08:00 8,2 C 7,7 C 4,4 C 97 % 1022,3 hPa 0,0 l/m 0,00 h 0,00 h 16 W/m 15,0 km/h (3 Bft) 98,52 %
16.04.2023 09:00 8,4 C 8,1 C 4,7 C 98 % 1022,7 hPa 0,0 l/m 0,00 h 0,00 h 31 W/m 11,1 km/h (2 Bft) 95,45 %
16.04.2023 10:00 8,8 C 9,2 C 5,7 C 98 % 1023,2 hPa 0,0 l/m 0,00 h 0,00 h 94 W/m 11,1 km/h (2 Bft) 96,94 %
16.04.2023 11:00 10,1 C 11,6 C 7,4 C 95 % 1023,6 hPa 0,0 l/m 0,13 h 0,00 h 251 W/m 17,2 km/h (3 Bft) 97,70 %
16.04.2023 12:00 12,8 C 17,1 C 11,1 C 83 % 1023,6 hPa 0,0 l/m 0,73 h 0,00 h 521 W/m 18,8 km/h (3 Bft) 99,49 %
16.04.2023 13:00 14,4 C 17,2 C 10,7 C 75 % 1023,5 hPa 0,0 l/m 0,37 h 0,00 h 427 W/m 16,0 km/h (3 Bft) 95,24 %
16.04.2023 14:00 14,9 C 16,6 C 10,8 C 71 % 1023,7 hPa 0,0 l/m 0,27 h 0,00 h 380 W/m 16,7 km/h (3 Bft) 97,87 %
16.04.2023 15:00 15,3 C 16,1 C 10,9 C 70 % 1023,6 hPa 0,0 l/m 0,13 h 0,00 h 263 W/m 15,7 km/h (3 Bft) 98,01 %
16.04.2023 16:00 14,9 C 15,1 C 10,6 C 72 % 1023,5 hPa 0,0 l/m 0,17 h 0,00 h 187 W/m 15,2 km/h (3 Bft) 95,61 %
16.04.2023 17:00 14,2 C 14,2 C 9,8 C 76 % 1023,6 hPa 0,0 l/m 0,17 h 0,27 h 158 W/m 16,7 km/h (3 Bft) 96,32 %
16.04.2023 18:00 12,5 C 11,8 C 8,0 C 87 % 1023,9 hPa 0,0 l/m 0,00 h 0,00 h 36 W/m 15,3 km/h (3 Bft) 98,10 %
16.04.2023 19:00 11,8 C 11,1 C 7,6 C 90 % 1024,1 hPa 0,0 l/m 0,00 h 0,00 h 22 W/m 13,4 km/h (3 Bft) 97,43 %
16.04.2023 20:00 11,3 C 10,4 C 7,0 C 90 % 1024,4 hPa 0,0 l/m 0,00 h 0,00 h 6 W/m 12,1 km/h (2 Bft) 97,81 %
16.04.2023 21:00 10,6 C 9,7 C 6,5 C 92 % 1024,7 hPa 0,0 l/m 0,00 h 0,00 h 0 W/m 11,1 km/h (2 Bft) 95,76 %
16.04.2023 22:00 10,2 C 9,4 C 6,0 C 93 % 1025,0 hPa 0,4 l/m 0,00 h 0,27 h 0 W/m 13,1 km/h (3 Bft) 97,57 %
16.04.2023 23:00 9,8 C 8,9 C 5,6 C 94 % 1025,0 hPa 0,0 l/m 0,00 h 0,00 h 0 W/m 16,0 km/h (3 Bft) 95,87 %
Min-Datum _ 14.04.23 14.04.23 14.04.23 14.04.23 13.04.23 - - - - 11.04.23 13.04.23
_ Min-Zeit 07:14 06:24 06:20 15:12 03:14 - - - - 22:58 00:02
Minimum _ 3,3 C 2,2 C -0,6 C 41 % 997,1 hPa - - - - 0,0 km/h (0 Bft) 10,00 %
Max-Datum _ 10.04.23 14.04.23 14.04.23 12.04.23 16.04.23 12.04.23 10.04.23 13.04.23 16.04.23 13.04.23 10.04.23
_ Max-Zeit 15:42 14:18 12:07 11:06 22:36 16:52 12:12 02:17 12:56 05:58 00:38
Maximum _ 18,9 C 26,1 C 17,8 C 98 % 1025,1 hPa 2,0 l/m 0,07 h 0,08 h 984 W/m 61,2 km/h
S (7 Bft)
100,00 %
Durchschnitt _ 10,2 C 10,4 C 6,1 C 78 % 1011,1 hPa #15,2 l/m #36:15 h #16:18 h 252 W/m 14,7 km/h (3 Bft) 97,17 %
© 2023 W. Hausmann